Morning Capo — V7CB4 — position and weather

sailwx.info

Track history (hours):
 
Tides and Currents Weather Stations Pressure Air Temp Water Temp Dewpoint Dewpoint Depression Visibility Wind Speed Wind Dir Waves Ship Positions

Morning Capo

Last reported at 2018-Jun-25 01:28 UTC. Time now 2018-Jun-25 10:08 UTC.
Position N 23°02' E 119°42'.

Length 200 m; draft 9.9 m.

Type: Cargo ship. MMSI: 538005232.

Date/timePositionNaut miles runAvg speedWind from/ knotsBaromVisibWave heightAir tempDewpointWater temp
2018-Jun-25 01:28N 23°02' E 119°42'815.7
2018-Jun-25 00:59N 22°56' E 119°36'816.1
2018-Jun-25 00:30N 22°50' E 119°31'  
2018-Jun-21 01:02N 01°26' E 104°30'317.0
2018-Jun-21 00:51N 01°24' E 104°28'617.6
2018-Jun-21 00:30N 01°20' E 104°23'916.9
2018-Jun-20 23:59N 01°16' E 104°15'817.0
2018-Jun-20 23:30N 01°15' E 104°07'916.6
2018-Jun-20 22:59N 01°14' E 103°58'816.4
2018-Jun-20 22:30N 01°11' E 103°51'816.0
2018-Jun-20 22:00N 01°06' E 103°45'714.5
2018-Jun-20 21:30N 01°03' E 103°39'815.0
2018-Jun-20 20:58N 01°06' E 103°32'714.4
2018-Jun-20 20:30N 01°10' E 103°26'815.5
2018-Jun-20 20:00N 01°15' E 103°20'815.5
2018-Jun-20 19:29N 01°20' E 103°14'  
Track history (hours):
 
Tides and Currents Weather Stations Pressure Air Temp Water Temp Dewpoint Dewpoint Depression Visibility Wind Speed Wind Dir Waves Ship Positions

Morning Capo

Last reported at 2018-Jun-25 01:28 UTC. Time now 2018-Jun-25 10:08 UTC.
Position N 23°02' E 119°42'.

Length 200 m; draft 9.9 m.

Type: Cargo ship. MMSI: 538005232.

Date/timePositionNaut miles runAvg speedWind from/ knotsBaromVisibWave heightAir tempDewpointWater temp
2018-Jun-25 01:28N 23°02' E 119°42'815.7
2018-Jun-25 00:59N 22°56' E 119°36'816.1
2018-Jun-25 00:30N 22°50' E 119°31'  
2018-Jun-21 01:02N 01°26' E 104°30'317.0
2018-Jun-21 00:51N 01°24' E 104°28'617.6
2018-Jun-21 00:30N 01°20' E 104°23'916.9
2018-Jun-20 23:59N 01°16' E 104°15'817.0
2018-Jun-20 23:30N 01°15' E 104°07'916.6
2018-Jun-20 22:59N 01°14' E 103°58'816.4
2018-Jun-20 22:30N 01°11' E 103°51'816.0
2018-Jun-20 22:00N 01°06' E 103°45'714.5
2018-Jun-20 21:30N 01°03' E 103°39'815.0
2018-Jun-20 20:58N 01°06' E 103°32'714.4
2018-Jun-20 20:30N 01°10' E 103°26'815.5
2018-Jun-20 20:00N 01°15' E 103°20'815.5
2018-Jun-20 19:29N 01°20' E 103°14'  

Dump ship's entire track history